KHBG

Hattiesburg Bobby L Chain Municipal Airport

Hattiesburg, Mississippi, USA
METAR KHBG 250027Z AUTO 25005KT 10SM -RA FEW075 OVC100 23/21 A3005 RMK AO2 LTG DSNT ALQDS TSE02 P0001 T02280211
Observed Flight Rules
May-25 @ 00:27 UTC (33 minutes ago) Visual Flight Rules
Wind Visibility Clouds Conditions
250° at 5 knots 10 miles
  • Few at 7,500' AGL
  • Overcast at 10,000' AGL
  • Light Rain
Temperatures Readings Precipitation
Current 23°C / 73°F
Dewpoint 21°C / 70°F
Humidity 89%
Altimeter 30.05" Hg
Pressure 1018 hPa
Elevation 44
Current Rain 0.01
METAR KHBG 250027Z AUTO 25005KT 10SM -RA FEW075 OVC100 23/21 A3005 RMK AO2 LTG DSNT ALQDS TSE02 P0001 T02280211
Observed Flight Rules
May-25 @ 00:27 UTC
(33 minutes ago)
VFR
Wind Visibility
250° at 5 knots 10 miles
Clouds
  • Few at 7,500' AGL
  • Overcast at 10,000' AGL
Conditions
  • Light Rain
Temperature Dewpoint
23°C / 73°F 21°C / 70°F
Humidity Altimeter Pressure
89% 30.05" Hg 1018 hPa
Current Rain
0.01